Uitslag Vunderkeloop 2019

10km   (aantal deelnemers: 58)

  startnr naam tijd woonplaats vereniging MV subcat
1 914 Niels Staring 00:34:45 Berghem A.V. Oss ’78 M h35
2 938 Rick Hendriks 00:35:31 Geffen A.V. Oss ’78 M h00
3 931 Maikel Tax 00:36:29 Lith A.V. Oss ’78 M h00
4 972 Lars van den Bosch 00:37:50 Macharen M h00
5 934 Edwin Gelinck 00:38:57 Boxtel Marvel M h35
6 942 Marcel Kuenen 00:39:02 Elst Running Elst M h35
7 935 Arnoud Koelen 00:39:21 Oss A.V. Oss ’78 M h50
8 940 Rob van Oudheusden 00:39:55 Megen M h00
9 959 Roy Maasdijk 00:40:20 Lith A.V. Oss ’78 M h35
10 955 Cordy Pittens 00:40:37 Geffen M h35
11 913 Dennis Angevaare 00:40:49 Uden Trioss M h35
12 974 Paul van den Heuvel 00:41:41 Oss Trioss M h35
13 973 Jurn van Gisteren 00:41:44 Oss A.V. Oss ’78 M h35
14 975 Daan van den Hoven 00:42:00 Macharen M h00
15 976 Rudi Hanegraaf 00:42:16 Heesch M h35
16 928 Jimmy Schulten 00:42:34 Oss A.V. Oss ’78 M h35
17 961 Ad Bolwerk 00:42:50 Geffen M h50
18 960 Pim Raijmakers 00:42:58 Heesch A.V. Oss ’78 M h00
19 936 Leon Megens 00:43:06 Oss A.V. Oss ’78 M h00
20 929 Femke Brands 00:43:13 Macharen A.V. Oss ’78 V d35
21 943 Gert-Jan Smits 00:43:41 Oss M h35
22 902 Mark Hendriks 00:43:41 Uden M h35
23 939 Henk van de Ven 00:43:48 Zeeland M h50
24 930 Suzanne Verwegen 00:43:51 Vinkel A.V. Oss ’78 V d00
25 921 Marcel Holthuis 00:44:23 Berghem M h50
26 954 Bjorn Heesakkers 00:44:30 Heesch M h35
27 919 Twan van Hoogstraten 00:45:03 Berghem M h50
28 880 Jan-Ruben van Schie 00:46:01 Oss M h35
29 933 Rolf van den Heuvel 00:46:11 Macharen M h35
30 944 Mike Heesakkers 00:46:18 Oss A.V. Oss ’78 M h00
31 905 Haske Saers 00:46:21 Uden AV de Keien V d35
32 971 Geert van Leuken 00:46:31 Oss Trioss M h35
33 970 Boy Stekhuizen 00:46:43 Oss M h35
34 979 Marloes van de Wijdeven 00:46:46 Oss V d00
35 980 Peter van de Wijdeven 00:46:47 Oss M h50
36 932 Sharon van Rossum 00:46:50 Oss A.V. Oss ’78 V d00
37 964 Ton van de Wielen 00:46:55 Oss M h35
38 858 Stan Verboord 00:47:31 Berghem M h00
39 918 Maikel van der Wijst 00:47:33 Berghem M h35
40 941 Johan de Vree 00:47:43 Lith M h35
41 841 Gertie Willemse 00:47:48 Deursen A.V. Oss ’78 V d45
42 947 Rob van Lent 00:48:01 Schaijk A.V. Oss ’78 M h50
43 951 Angnet van ’t Wout 00:48:27 Oss A.V. Oss ’78 V d45
44 937 Henk Lagerweij 00:48:28 Oss A.V. Oss ’78 M h50
45 924 Teun van Kalkeren 00:48:30 Beneden-Leeuwen Dijk Runners M h50
46 953 Lennart Kocken 00:48:45 Heesch M h35
47 949 Wendy van de Ven 00:49:09 Heesch Trioss V d00
48 967 Rob van Druenen 00:50:36 Uden A.V. de Keien M h35
49 952 Stefan Beukers 00:51:54 Rosmalen PH M h50
50 923 Robert van der Doelen 00:52:11 Geffen M h35
51 956 Rien van Lith 00:53:02 Oss A.V. Oss ’78 M h50
52 978 Ed Wisse 00:53:06 Oss M h50
53 912 Frans van Uden 00:53:43 Uden A.V. de Keien M h50
54 962 Brigitte Wittenberg 00:53:59 Oss A.V. Oss ’78 V d35
55 977 P van den Heuvel 00:58:39 M h50
56 945 Stijn Wingens dnf Schaijk LG van de Loop M h00
950 Jan van Schadewijk dnf Ravenstein S.I.E.K. M h35
946 Suzanne van der Loop dnf Oss LG van de Loop V d00

5km   (aantal deelnemers: 76)

  startnr naam tijd woonplaats vereniging MV subcat
1 666 Dennis van Doornik 00:16:58 Druten Cifla Nijmegen M h35
2 615 Bas van Summeren 00:17:36 Uden AV de Keien M h35
3 661 Peter Mijsberg 00:17:42 Eerde A.V. de Keien M h50
4 593 Jens Nederpel 00:17:51 Lithoijen A.V. Oss ’78 M h00
5 625 Luuk Gremmen 00:18:39 Santiago M h00
6 598 Teun Heister 00:18:42 Berghem M h00
7 656 Niels Govers 00:18:52 Uden A.V. Oss ’78 M h00
8 658 Bart Verberkt 00:18:54 Heesch A.V. Oss ’78 M h00
9 665 Kaïn van Osch 00:19:08 Schijndel M h00
10 578 Pierre Tromp 00:19:26 Druten M h35
11 594 Marco Dreuning 00:19:37 Boxtel Marvel M h50
12 651 Henk Kreemers 00:19:51 Velddriel M h00
13 674 Philip de Bruijn 00:19:52 Beuningen Gld AVVN M h35
14 669 Rob Jansen 00:20:17 Uden A.V. de Keien M h50
15 587 Anne van Loon 00:20:21 Berghem A.V. Oss ’78 V d00
16 670 Toon Verkerk 00:20:50 Nijmegen AVVN M h50
17 572 René Trieling 00:20:54 Wijchen AV Wijchen M h50
18 531 Kimberley van Nuland 00:21:39 Vinkel A.V. Oss ’78 V d00
19 667 Martijn van Erp 00:21:46 Oss M h00
20 664 Andries van den Elzen 00:21:50 Geffen M h35
21 616 Mara van Rossum 00:22:04 Oss LG van der Loop V d00
22 588 Anja van Vliet 00:22:21 Oss Veteranen Ned. V d45
23 583 Gert Vermeer 00:22:23 Ommeren Dijk Runners M h50
24 621 Rob van Gool 00:22:37 Geffen M h50
25 608 Thijs den Dikken 00:22:52 Oss M h00
26 592 Theo Janssen-Steenberg 00:23:12 M h50
27 544 Michél Theunisse 00:23:13 M h35
28 589 Nicole van den Elzen 00:23:25 Geffen V d00
29 668 Maikel van Niftrik 00:23:25 Oss A.V. Oss ’78 M h35
30 590 Diana van Erp 00:23:26 Oss V d35
31 507 Diny Boogerd 00:23:34 Uden AV de Keien V d45
32 662 Rudy van de Heijden 00:23:38 Grave AV Sporting Boxmeer M h35
33 568 Jan van Dorst 00:23:45 Oss M h35
34 586 Ingeborg Talens 00:23:50 Berghem A.V. Oss ’78 V d35
35 612 Willem de Klein 00:24:10 M h00
36 644 Carlo van Hout 00:24:29 Uden AV de Keien M h50
37 540 Linda Ultee-Kleinhesselink 00:24:41 Oss A.V. Oss ’78 V d35
38 562 Wilco Bevers 00:24:59 Oss A.V. Oss ’78 M h50
39 537 Britt van den Bosch 00:25:08 Macharen V d00
40 545 Mats van de Schie 00:25:11 Oijen M h00
41 655 Ramond Bastiaans 00:25:33 Oijen M h35
42 663 Finn Rikken 00:25:46 Macharen A.V. Oss ’78 M h00
43 657 Erwin Hanegraaf 00:25:47 Oss M h35
44 538 Monique Gloudemans 00:26:16 Oss A.V. Oss ’78 V d45
45 584 Wim Zegers 00:26:17 Heesch M h50
46 585 Rianne Goorden 00:26:21 Berghem A.V. Oss ’78 V d45
47 571 Erik van Schie 00:26:36 Oijen M h35
48 624 Johan Huiberts 00:26:41 Oss A.V. Oss ’78 M h50
49 576 Patrick van Gaal 00:26:53 Berghem M h35
50 547 Trudy Bergers-Dreesen 00:27:01 Berghem A.V. Oss ’78 V d45
51 648 Hans Smits 00:27:08 Oijen A.V. Oss ’78 M h50
52 551 Bianca van den Broek 00:27:15 Uden V d45
53 533 Leon Voskamp 00:27:23 Macharen M h35
54 653 Imke van Gogh 00:27:28 Macharen V d00
55 517 Claudia van den Elzen 00:27:40 Nuland V d00
56 523 Harrie Stempher 00:27:41 Eindhoven AVVN M h50
57 577 Moniek Loeffen 00:27:56 Teeffelen V d35
58 505 Moniek van Egmond 00:28:00 Grave Sporting Boxmeer V d45
59 569 Danielle van Bergen 00:28:02 Oijen V d00
60 645 Marisca Vossen 00:28:16 Ravenstein LG van der Loop V d45
61 525 Gaike van der Linden 00:28:24 Nijmegen Nijmegen Atletiek V d35
62 643 ElseMarie Sonnemans 00:28:30 Oss V d35
63 659 Ingrid van Berkom 00:28:44 Oss A.V. Oss ’78 V d35
64 603 Ivonne Beukers 00:29:12 Rosmalen PH V d45
65 580 Jan School 00:29:17 Heteren M h50
66 558 Eline Vaes 00:29:40 Veghel V d00
67 650 Wouter van Summeren 00:30:01 Macharen M h35
68 646 Wim Vossen 00:30:12 Megen LG van der Loop M h50
69 570 Eddy Driessens 00:31:29 M h50
70 559 Debbie Klösters 00:31:38 Oss V d00
71 660 Rinie van de Donk 00:32:22 Oss M h50
72 613 Edwin Kling 00:32:43 Nistelrode M h35
73 619 Sophie Gubbels 00:33:58 V d00
74 503 Lenie Stempher-Arts 00:35:04 Eindhoven AVVN V d45
75 642 Thea Kobus 00:36:35 Macharen V d45
76 654 Chompoo Chauijiw 00:38:06 Haren A.V. Oss ’78 V d35